createdAt,value
2018-08-25T00:02:20.907Z,5.17
2018-08-25T00:04:56.650Z,6.30
2018-08-25T00:07:24.409Z,6.27
2018-08-25T00:09:52.028Z,5.93
2018-08-25T00:12:20.339Z,4.83
2018-08-25T00:14:47.962Z,5.60
2018-08-25T00:17:15.506Z,5.20
2018-08-25T00:19:43.084Z,6.87
2018-08-25T00:22:10.621Z,5.30
2018-08-25T00:24:38.272Z,5.50
2018-08-25T00:27:05.962Z,5.53
2018-08-25T00:29:33.498Z,5.00
2018-08-25T00:32:01.056Z,5.43
2018-08-25T00:34:28.615Z,6.87
2018-08-25T00:36:56.135Z,6.80
2018-08-25T00:39:23.676Z,7.37
2018-08-25T00:41:51.430Z,7.23
2018-08-25T00:44:19.008Z,5.93
2018-08-25T00:46:46.594Z,7.43
2018-08-25T00:49:14.141Z,6.47
2018-08-25T00:51:41.667Z,7.13
2018-08-25T00:54:09.250Z,7.57
2018-08-25T00:56:44.361Z,7.13
2018-08-25T00:59:11.917Z,7.00
2018-08-25T01:01:39.475Z,7.40
2018-08-25T01:04:07.000Z,7.23
2018-08-25T01:06:34.571Z,7.30
2018-08-25T01:09:02.175Z,6.77
2018-08-25T01:11:29.759Z,6.80
2018-08-25T01:13:57.580Z,6.20
2018-08-25T01:16:25.123Z,7.07
2018-08-25T01:18:52.652Z,6.13
2018-08-25T01:21:20.286Z,7.00
2018-08-25T01:23:47.923Z,6.23
2018-08-25T01:26:15.458Z,5.70
2018-08-25T01:28:46.831Z,7.03
2018-08-25T01:31:14.411Z,7.47
2018-08-25T01:33:41.973Z,7.33
2018-08-25T01:36:09.480Z,5.60
2018-08-25T01:38:37.271Z,6.00
2018-08-25T01:41:04.963Z,5.70
2018-08-25T01:43:32.614Z,5.80
2018-08-25T01:46:00.140Z,5.97
2018-08-25T01:48:27.684Z,6.63
2018-08-25T01:50:59.326Z,6.20
2018-08-25T01:53:26.963Z,6.07
2018-08-25T01:55:59.303Z,5.30
2018-08-25T01:58:26.899Z,6.43
2018-08-25T02:00:54.544Z,5.37
2018-08-25T02:03:22.173Z,6.10
2018-08-25T02:05:50.607Z,5.27
2018-08-25T02:08:18.147Z,6.33
2018-08-25T02:10:45.667Z,5.10
2018-08-25T02:13:13.648Z,4.57
2018-08-25T02:15:44.339Z,3.83
2018-08-25T02:18:11.887Z,4.87
2018-08-25T02:20:45.087Z,5.33
2018-08-25T02:23:12.614Z,5.40
2018-08-25T02:25:40.134Z,3.20
2018-08-25T02:28:07.676Z,5.10
2018-08-25T02:30:35.340Z,5.53
2018-08-25T02:33:02.906Z,5.37
2018-08-25T02:35:30.527Z,4.33
2018-08-25T02:38:00.154Z,3.60
2018-08-25T02:40:28.763Z,4.43
2018-08-25T02:42:56.315Z,4.80
2018-08-25T02:45:27.027Z,4.77
2018-08-25T02:47:54.971Z,3.30
2018-08-25T02:50:23.196Z,4.80
2018-08-25T02:52:50.906Z,5.37
2018-08-25T02:55:22.225Z,3.67
2018-08-25T02:57:49.756Z,5.77
2018-08-25T03:00:17.363Z,3.87
2018-08-25T03:02:45.025Z,5.73
2018-08-25T03:05:12.695Z,6.83
2018-08-25T03:07:40.283Z,6.40
2018-08-25T03:10:07.843Z,4.60
2018-08-25T03:12:35.394Z,6.17
2018-08-25T03:15:03.387Z,5.10
2018-08-25T03:17:33.026Z,4.10
2018-08-25T03:20:00.548Z,5.40
2018-08-25T03:22:28.119Z,5.90
2018-08-25T03:24:55.711Z,6.27
2018-08-25T03:27:23.363Z,7.30
2018-08-25T03:29:56.884Z,6.87
2018-08-25T03:32:24.423Z,6.33
2018-08-25T03:34:52.082Z,5.20
2018-08-25T03:37:19.615Z,6.10
2018-08-25T03:39:48.215Z,4.97
2018-08-25T03:42:15.755Z,5.70
2018-08-25T03:44:44.392Z,6.67
2018-08-25T03:47:11.967Z,5.93
2018-08-25T03:49:39.551Z,7.37
2018-08-25T03:52:07.187Z,6.83
2018-08-25T03:54:34.766Z,6.93
2018-08-25T03:57:02.623Z,6.47
2018-08-25T03:59:30.156Z,7.30
2018-08-25T04:01:57.679Z,6.17
2018-08-25T04:04:25.242Z,6.70
2018-08-25T04:06:52.748Z,6.70
2018-08-25T04:09:25.080Z,6.50
2018-08-25T04:11:57.046Z,6.13
2018-08-25T04:14:24.569Z,6.77
2018-08-25T04:16:52.104Z,5.87
2018-08-25T04:19:20.776Z,6.67
2018-08-25T04:21:48.903Z,6.23
2018-08-25T04:24:29.459Z,6.73
2018-08-25T04:26:57.023Z,5.90
2018-08-25T04:29:28.550Z,6.40
2018-08-25T04:31:56.060Z,6.53
2018-08-25T04:34:23.649Z,6.90
2018-08-25T04:36:51.251Z,6.57
2018-08-25T04:39:20.783Z,4.70
2018-08-25T04:41:48.343Z,7.70
2018-08-25T04:44:15.868Z,6.53
2018-08-25T04:46:43.429Z,7.43
2018-08-25T04:49:10.998Z,5.57
2018-08-25T04:51:38.970Z,7.57
2018-08-25T04:54:12.335Z,7.73
2018-08-25T04:56:40.048Z,7.53
2018-08-25T04:59:07.607Z,6.90
2018-08-25T05:01:35.197Z,5.90
2018-08-25T05:04:06.042Z,6.77
2018-08-25T05:06:33.611Z,6.90
2018-08-25T05:09:01.190Z,4.97
2018-08-25T05:11:35.347Z,6.83
2018-08-25T05:14:02.939Z,6.03
2018-08-25T05:16:30.483Z,4.80
2018-08-25T05:18:58.015Z,5.90
2018-08-25T05:21:25.762Z,6.53
2018-08-25T05:23:53.439Z,4.67
2018-08-25T05:26:21.068Z,6.10
2018-08-25T05:28:48.830Z,5.63
2018-08-25T05:31:16.391Z,4.70
2018-08-25T05:33:43.947Z,6.33
2018-08-25T05:36:11.547Z,5.70
2018-08-25T05:38:39.142Z,4.20
2018-08-25T05:41:07.035Z,4.00
2018-08-25T05:43:34.732Z,5.17
2018-08-25T05:46:02.416Z,5.10
2018-08-25T05:48:30.097Z,4.70
2018-08-25T05:50:57.675Z,5.23
2018-08-25T05:53:25.232Z,5.20
2018-08-25T05:55:52.815Z,5.23
2018-08-25T05:58:20.392Z,4.00
2018-08-25T06:00:48.010Z,4.27
2018-08-25T06:03:15.548Z,5.17
2018-08-25T06:05:43.106Z,3.70
2018-08-25T06:08:11.727Z,3.33
2018-08-25T06:10:39.312Z,3.87
2018-08-25T06:13:10.486Z,3.57
2018-08-25T06:15:38.238Z,4.20
2018-08-25T06:18:05.968Z,3.07
2018-08-25T06:20:33.664Z,3.13
2018-08-25T06:23:01.238Z,3.70
2018-08-25T06:25:28.790Z,2.97
2018-08-25T06:27:56.376Z,2.90
2018-08-25T06:30:24.012Z,3.10
2018-08-25T06:32:51.572Z,3.53
2018-08-25T06:35:19.143Z,3.60
2018-08-25T06:37:46.699Z,3.57
2018-08-25T06:40:14.276Z,3.00
2018-08-25T06:42:41.924Z,4.70
2018-08-25T06:45:09.431Z,4.07
2018-08-25T06:47:37.423Z,3.53
2018-08-25T06:50:05.477Z,3.33
2018-08-25T06:52:33.167Z,3.07
2018-08-25T06:55:00.726Z,3.37
2018-08-25T06:57:28.285Z,4.43
2018-08-25T06:59:55.877Z,3.07
2018-08-25T07:02:23.515Z,3.10
2018-08-25T07:04:51.087Z,3.70
2018-08-25T07:07:18.588Z,2.90
2018-08-25T07:09:46.156Z,3.83
2018-08-25T07:12:13.715Z,3.27
2018-08-25T07:14:41.251Z,3.10
2018-08-25T07:17:08.837Z,3.17
2018-08-25T07:19:36.388Z,3.53
2018-08-25T07:22:03.947Z,3.67
2018-08-25T07:24:31.508Z,3.43
2018-08-25T07:26:59.103Z,3.10
2018-08-25T07:29:26.654Z,3.27
2018-08-25T07:31:54.233Z,2.90
2018-08-25T07:34:21.815Z,3.20
2018-08-25T07:36:49.431Z,2.60
2018-08-25T07:39:16.969Z,3.10
2018-08-25T07:41:44.516Z,2.47
2018-08-25T07:44:12.323Z,3.37
2018-08-25T07:46:40.459Z,3.10
2018-08-25T07:49:08.076Z,2.97
2018-08-25T07:51:35.561Z,2.70
2018-08-25T07:54:03.366Z,3.27
2018-08-25T07:56:30.883Z,2.30
2018-08-25T07:58:58.397Z,2.70
2018-08-25T08:01:26.284Z,3.20
2018-08-25T08:03:53.814Z,2.20
2018-08-25T08:06:21.349Z,2.47
2018-08-25T08:08:48.884Z,2.63
2018-08-25T08:11:16.408Z,2.37
2018-08-25T08:13:43.960Z,2.00
2018-08-25T08:16:11.564Z,2.73
2018-08-25T08:18:39.426Z,2.57
2018-08-25T08:21:15.959Z,2.47
2018-08-25T08:23:44.103Z,2.33
2018-08-25T08:26:11.662Z,2.60
2018-08-25T08:28:40.371Z,2.20
2018-08-25T08:31:08.605Z,2.80
2018-08-25T08:33:36.168Z,2.60
2018-08-25T08:36:03.735Z,2.40
2018-08-25T08:38:34.844Z,2.80
2018-08-25T08:41:02.406Z,2.57
2018-08-25T08:43:30.475Z,3.03
2018-08-25T08:45:58.233Z,2.40
2018-08-25T08:48:25.794Z,2.30
2018-08-25T08:50:59.429Z,2.13
2018-08-25T08:53:26.964Z,2.37
2018-08-25T08:55:59.587Z,2.70
2018-08-25T08:58:27.173Z,2.30
2018-08-25T09:00:54.648Z,2.70
2018-08-25T09:03:28.001Z,2.50
2018-08-25T09:06:02.751Z,2.40
2018-08-25T09:08:30.303Z,2.30
2018-08-25T09:10:57.866Z,2.83
2018-08-25T09:13:29.590Z,2.57
2018-08-25T09:15:57.178Z,2.33
2018-08-25T09:18:24.708Z,2.50
2018-08-25T09:20:52.229Z,2.80
2018-08-25T09:23:19.740Z,2.50
2018-08-25T09:25:47.295Z,3.13
2018-08-25T09:28:14.810Z,2.70
2018-08-25T09:30:48.352Z,2.20
2018-08-25T09:33:15.851Z,2.23
2018-08-25T09:35:43.477Z,2.53
2018-08-25T09:38:15.923Z,2.60
2018-08-25T09:40:44.110Z,2.67
2018-08-25T09:43:13.779Z,2.40
2018-08-25T09:45:43.365Z,2.53
2018-08-25T09:48:10.956Z,2.30
2018-08-25T09:50:57.347Z,2.20
2018-08-25T09:53:24.900Z,3.10
2018-08-25T09:55:52.790Z,2.73
2018-08-25T09:58:20.542Z,3.10
2018-08-25T10:00:52.643Z,2.87
2018-08-25T10:03:24.848Z,3.10
2018-08-25T10:05:52.387Z,2.50
2018-08-25T10:08:32.291Z,3.10
2018-08-25T10:10:59.915Z,2.73
2018-08-25T10:13:27.439Z,2.43
2018-08-25T10:16:00.060Z,3.33
2018-08-25T10:18:27.610Z,2.77
2018-08-25T10:20:55.170Z,2.77
2018-08-25T10:23:22.821Z,3.10
2018-08-25T10:25:50.374Z,2.53
2018-08-25T10:28:18.404Z,2.87
2018-08-25T10:30:46.022Z,2.63
2018-08-25T10:33:13.557Z,2.57
2018-08-25T10:35:41.146Z,2.50
2018-08-25T10:38:10.751Z,2.60
2018-08-25T10:40:38.734Z,2.47
2018-08-25T10:43:06.296Z,2.70
2018-08-25T10:45:33.863Z,3.20
2018-08-25T10:48:01.445Z,2.77
2018-08-25T10:50:29.307Z,2.00
2018-08-25T10:53:00.868Z,3.47
2018-08-25T10:55:33.447Z,3.20
2018-08-25T10:58:07.929Z,1.93
2018-08-25T11:00:35.579Z,3.00
2018-08-25T11:03:03.131Z,2.63
2018-08-25T11:05:30.664Z,2.20
2018-08-25T11:08:05.546Z,2.00
2018-08-25T11:10:34.154Z,2.43
2018-08-25T11:13:01.683Z,3.27
2018-08-25T11:15:29.214Z,3.00
2018-08-25T11:17:57.003Z,2.60
2018-08-25T11:20:24.723Z,2.30
2018-08-25T11:22:54.311Z,2.63
2018-08-25T11:25:27.475Z,3.37
2018-08-25T11:27:59.391Z,3.03
2018-08-25T11:30:26.959Z,2.50
2018-08-25T11:32:54.514Z,1.90
2018-08-25T11:35:22.062Z,3.07
2018-08-25T11:37:49.708Z,3.47
2018-08-25T11:40:17.163Z,2.20
2018-08-25T11:42:44.703Z,3.17
2018-08-25T11:45:12.234Z,2.53
2018-08-25T11:47:39.769Z,2.27
2018-08-25T11:50:07.328Z,2.30
2018-08-25T11:52:34.846Z,1.87
2018-08-25T11:55:02.422Z,2.50
2018-08-25T11:57:30.010Z,1.60
2018-08-25T11:59:57.571Z,1.40
2018-08-25T12:02:27.800Z,1.70
2018-08-25T12:04:52.795Z,1.60
2018-08-25T12:07:37.066Z,1.97
2018-08-25T12:10:04.871Z,2.50
2018-08-25T12:12:32.458Z,2.60
2018-08-25T12:15:00.119Z,1.90
2018-08-25T12:17:27.956Z,3.10
2018-08-25T12:19:55.495Z,1.57
2018-08-25T12:22:23.099Z,2.20
2018-08-25T12:24:50.615Z,1.40
2018-08-25T12:27:18.129Z,2.10
2018-08-25T12:29:45.660Z,2.67
2018-08-25T12:32:13.171Z,2.77
2018-08-25T12:34:40.706Z,2.27
2018-08-25T12:37:08.234Z,2.00
2018-08-25T12:39:35.871Z,1.83
2018-08-25T12:42:03.385Z,1.60
2018-08-25T12:44:30.932Z,1.37
2018-08-25T12:46:58.492Z,0.97
2018-08-25T12:49:28.327Z,1.30
2018-08-25T12:51:55.844Z,1.67
2018-08-25T12:54:23.471Z,1.00
2018-08-25T12:56:51.068Z,1.40
2018-08-25T12:59:18.745Z,1.07
2018-08-25T13:01:46.523Z,1.20
2018-08-25T13:04:17.312Z,1.10
2018-08-25T13:06:44.905Z,1.27
2018-08-25T13:09:12.608Z,1.20
2018-08-25T13:11:40.194Z,1.33
2018-08-25T13:14:08.248Z,1.20
2018-08-25T13:16:36.042Z,1.00
2018-08-25T13:19:04.056Z,1.00
2018-08-25T13:21:31.904Z,1.20
2018-08-25T13:23:59.800Z,1.00
2018-08-25T13:26:27.340Z,1.20
2018-08-25T13:28:55.222Z,1.00
2018-08-25T13:31:22.951Z,1.30
2018-08-25T13:33:50.563Z,1.40
2018-08-25T13:36:18.949Z,1.00
2018-08-25T13:38:47.630Z,1.60
2018-08-25T13:41:15.234Z,1.40
2018-08-25T13:43:43.607Z,1.10
2018-08-25T13:46:11.139Z,0.83
2018-08-25T13:48:38.732Z,0.90
2018-08-25T13:51:06.314Z,1.03
2018-08-25T13:53:34.021Z,0.90
2018-08-25T13:56:01.599Z,1.30
2018-08-25T13:58:29.440Z,1.40
2018-08-25T14:00:56.974Z,1.10
2018-08-25T14:03:25.084Z,1.67
2018-08-25T14:05:52.654Z,1.17
2018-08-25T14:08:20.438Z,1.10
2018-08-25T14:10:47.959Z,1.27
2018-08-25T14:13:18.900Z,1.27
2018-08-25T14:15:46.448Z,1.00
2018-08-25T14:18:14.087Z,1.13
2018-08-25T14:20:41.623Z,1.10
2018-08-25T14:23:09.154Z,1.07
2018-08-25T14:25:37.198Z,1.10
2018-08-25T14:28:04.962Z,1.50
2018-08-25T14:30:32.646Z,1.20
2018-08-25T14:33:00.258Z,1.80
2018-08-25T14:35:27.834Z,1.20
2018-08-25T14:37:56.435Z,1.80
2018-08-25T14:40:24.022Z,1.50
2018-08-25T14:42:51.579Z,1.53
2018-08-25T14:45:19.124Z,2.23
2018-08-25T14:47:46.651Z,1.53
2018-08-25T14:50:14.287Z,1.90
2018-08-25T14:52:41.819Z,2.17
2018-08-25T14:55:09.951Z,1.80
2018-08-25T14:57:37.494Z,2.10
2018-08-25T15:00:05.199Z,1.77
2018-08-25T15:02:32.759Z,1.37
2018-08-25T15:05:00.307Z,2.17
2018-08-25T15:07:27.902Z,2.10
2018-08-25T15:09:55.448Z,2.20
2018-08-25T15:12:23.008Z,2.20
2018-08-25T15:14:50.658Z,1.70
2018-08-25T15:17:18.283Z,1.90
2018-08-25T15:19:45.803Z,2.20
2018-08-25T15:22:13.383Z,1.93
2018-08-25T15:24:40.943Z,2.07
2018-08-25T15:27:09.645Z,1.70
2018-08-25T15:29:37.334Z,1.53
2018-08-25T15:32:04.947Z,1.70
2018-08-25T15:34:32.562Z,1.00
2018-08-25T15:37:00.234Z,1.10
2018-08-25T15:39:27.811Z,1.17
2018-08-25T15:41:55.337Z,1.27
2018-08-25T15:44:22.972Z,1.10
2018-08-25T15:46:50.419Z,1.60
2018-08-25T15:49:18.125Z,1.30
2018-08-25T15:51:45.693Z,1.07
2018-08-25T15:54:13.317Z,0.87
2018-08-25T15:56:40.859Z,1.20
2018-08-25T15:59:08.571Z,0.97
2018-08-25T16:01:36.232Z,0.70
2018-08-25T16:04:03.791Z,1.10
2018-08-25T16:06:31.503Z,0.80
2018-08-25T16:08:59.087Z,0.80
2018-08-25T16:11:28.961Z,0.63
2018-08-25T16:13:56.450Z,1.20
2018-08-25T16:16:24.335Z,0.90
2018-08-25T16:18:51.873Z,1.03
2018-08-25T16:21:19.511Z,0.90
2018-08-25T16:23:47.027Z,1.00
2018-08-25T16:26:14.595Z,0.90
2018-08-25T16:28:42.132Z,0.67
2018-08-25T16:31:09.858Z,0.80
2018-08-25T16:33:37.526Z,0.60
2018-08-25T16:36:05.012Z,0.80
2018-08-25T16:38:32.531Z,0.90
2018-08-25T16:41:00.090Z,0.70
2018-08-25T16:43:27.738Z,0.60
2018-08-25T16:45:55.271Z,1.07
2018-08-25T16:48:22.887Z,0.90
2018-08-25T16:50:50.415Z,0.70
2018-08-25T16:53:18.285Z,0.90
2018-08-25T16:55:45.895Z,0.47
2018-08-25T16:58:13.658Z,1.07
2018-08-25T17:00:41.259Z,0.80
2018-08-25T17:03:08.802Z,0.60
2018-08-25T17:05:36.328Z,0.53
2018-08-25T17:08:03.919Z,0.77
2018-08-25T17:10:31.586Z,0.80
2018-08-25T17:12:59.278Z,0.70
2018-08-25T17:15:27.288Z,1.03
2018-08-25T17:17:54.848Z,0.90
2018-08-25T17:20:22.410Z,1.00
2018-08-25T17:22:50.087Z,0.70
2018-08-25T17:25:17.643Z,1.20
2018-08-25T17:27:45.240Z,0.67
2018-08-25T17:30:12.833Z,0.90
2018-08-25T17:32:40.351Z,0.70
2018-08-25T17:35:07.859Z,0.50
2018-08-25T17:37:35.395Z,1.10
2018-08-25T17:40:03.032Z,0.70
2018-08-25T17:42:30.702Z,0.60
2018-08-25T17:44:58.508Z,0.60
2018-08-25T17:47:26.031Z,1.07
2018-08-25T17:49:53.840Z,0.73
2018-08-25T17:52:21.420Z,0.50
2018-08-25T17:54:48.977Z,0.87
2018-08-25T17:57:16.655Z,0.70
2018-08-25T17:59:44.244Z,0.70
2018-08-25T18:02:11.834Z,0.93
2018-08-25T18:04:39.480Z,0.53
2018-08-25T18:07:07.087Z,0.53
2018-08-25T18:09:34.705Z,0.80
2018-08-25T18:12:02.273Z,0.70
2018-08-25T18:14:30.017Z,1.10
2018-08-25T18:16:57.568Z,0.90
2018-08-25T18:19:25.172Z,1.00
2018-08-25T18:21:53.549Z,0.90
2018-08-25T18:24:21.135Z,0.70
2018-08-25T18:26:48.704Z,0.80
2018-08-25T18:29:16.265Z,1.00
2018-08-25T18:31:43.875Z,0.80
2018-08-25T18:34:11.432Z,0.70
2018-08-25T18:36:39.087Z,0.77
2018-08-25T18:39:09.656Z,1.13
2018-08-25T18:41:37.252Z,0.80
2018-08-25T18:44:04.927Z,0.80
2018-08-25T18:46:32.653Z,0.80
2018-08-25T18:49:00.208Z,0.63
2018-08-25T18:51:27.894Z,0.70
2018-08-25T18:53:55.441Z,0.90
2018-08-25T18:56:23.010Z,0.70
2018-08-25T18:58:50.621Z,0.57
2018-08-25T19:01:18.228Z,0.60
2018-08-25T19:03:46.173Z,0.53
2018-08-25T19:06:13.816Z,0.60
2018-08-25T19:08:41.541Z,0.60
2018-08-25T19:11:09.407Z,0.63
2018-08-25T19:13:36.977Z,0.80
2018-08-25T19:16:04.547Z,0.70
2018-08-25T19:18:32.522Z,0.70
2018-08-25T19:21:00.090Z,1.10
2018-08-25T19:23:27.655Z,0.80
2018-08-25T19:25:55.238Z,0.60
2018-08-25T19:28:22.823Z,0.60
2018-08-25T19:30:50.548Z,0.70
2018-08-25T19:33:18.211Z,0.73
2018-08-25T19:35:45.792Z,0.70
2018-08-25T19:38:13.467Z,1.00
2018-08-25T19:40:41.309Z,0.67
2018-08-25T19:43:09.032Z,0.70
2018-08-25T19:45:36.567Z,0.93
2018-08-25T19:48:04.232Z,0.73
2018-08-25T19:50:32.893Z,0.80
2018-08-25T19:53:00.855Z,0.53
2018-08-25T19:55:28.442Z,0.50
2018-08-25T19:57:56.413Z,0.60
2018-08-25T20:00:24.237Z,0.60
2018-08-25T20:02:51.656Z,0.60
2018-08-25T20:05:19.293Z,0.70
2018-08-25T20:07:46.817Z,0.87
2018-08-25T20:10:14.438Z,0.53
2018-08-25T20:12:42.048Z,0.97
2018-08-25T20:15:09.595Z,1.07
2018-08-25T20:17:37.159Z,0.97
2018-08-25T20:20:05.087Z,1.10
2018-08-25T20:22:33.369Z,1.20
2018-08-25T20:25:00.986Z,1.13
2018-08-25T20:27:29.045Z,1.13
2018-08-25T20:29:56.853Z,1.30
2018-08-25T20:32:24.359Z,1.10
2018-08-25T20:34:51.920Z,1.23
2018-08-25T20:37:19.675Z,1.10
2018-08-25T20:39:47.319Z,1.27
2018-08-25T20:42:14.959Z,1.47
2018-08-25T20:44:42.498Z,1.83
2018-08-25T20:47:10.068Z,1.40
2018-08-25T20:49:37.664Z,1.30
2018-08-25T20:52:05.559Z,1.10
2018-08-25T20:54:33.063Z,1.37
2018-08-25T20:57:00.599Z,1.17
2018-08-25T20:59:28.203Z,1.03
2018-08-25T21:01:55.740Z,1.60
2018-08-25T21:04:23.302Z,1.20
2018-08-25T21:06:50.838Z,1.40
2018-08-25T21:09:18.530Z,1.17
2018-08-25T21:11:46.132Z,1.17
2018-08-25T21:14:13.795Z,1.30
2018-08-25T21:16:41.315Z,1.00
2018-08-25T21:19:08.908Z,1.10
2018-08-25T21:21:36.438Z,1.13
2018-08-25T21:24:04.061Z,1.30
2018-08-25T21:26:31.639Z,1.13
2018-08-25T21:28:59.276Z,1.00
2018-08-25T21:31:26.843Z,1.20
2018-08-25T21:33:58.295Z,1.10
2018-08-25T21:36:25.838Z,1.20
2018-08-25T21:38:53.377Z,0.97
2018-08-25T21:41:20.967Z,1.27
2018-08-25T21:43:48.527Z,0.90
2018-08-25T21:46:16.056Z,0.87
2018-08-25T21:48:43.615Z,0.87
2018-08-25T21:51:12.469Z,1.80
2018-08-25T21:53:39.997Z,0.90
2018-08-25T21:56:07.578Z,0.97
2018-08-25T21:58:35.203Z,1.30
2018-08-25T22:01:02.773Z,0.80
2018-08-25T22:03:30.857Z,1.30
2018-08-25T22:05:58.523Z,0.90
2018-08-25T22:08:26.098Z,1.40
2018-08-25T22:10:54.033Z,0.90
2018-08-25T22:13:21.787Z,1.20
2018-08-25T22:15:49.616Z,0.97
2018-08-25T22:18:17.608Z,0.90
2018-08-25T22:20:45.238Z,1.30
2018-08-25T22:23:12.777Z,0.97
2018-08-25T22:25:40.437Z,1.00
2018-08-25T22:28:07.995Z,1.30
2018-08-25T22:30:35.752Z,1.40
2018-08-25T22:33:03.339Z,1.70
2018-08-25T22:35:31.215Z,1.37
2018-08-25T22:37:58.789Z,1.80
2018-08-25T22:40:26.346Z,2.17
2018-08-25T22:42:53.887Z,2.13
2018-08-25T22:45:21.473Z,1.63
2018-08-25T22:47:49.091Z,2.63
2018-08-25T22:50:16.627Z,1.80
2018-08-25T22:52:49.675Z,2.30
2018-08-25T22:55:17.807Z,1.87
2018-08-25T22:57:45.383Z,1.60
2018-08-25T23:00:13.014Z,1.30
2018-08-25T23:02:40.753Z,1.70
2018-08-25T23:05:08.731Z,1.30
2018-08-25T23:07:36.398Z,2.07
2018-08-25T23:10:04.475Z,1.50
2018-08-25T23:12:32.664Z,1.40
2018-08-25T23:15:00.356Z,2.70
2018-08-25T23:17:31.259Z,2.20
2018-08-25T23:19:59.136Z,1.30
2018-08-25T23:22:30.372Z,1.60
2018-08-25T23:24:57.995Z,1.70
2018-08-25T23:27:25.751Z,2.27
2018-08-25T23:29:54.321Z,1.50
2018-08-25T23:32:21.880Z,2.13
2018-08-25T23:34:49.371Z,2.13
2018-08-25T23:37:18.941Z,1.33
2018-08-25T23:39:46.500Z,1.70
2018-08-25T23:42:14.197Z,2.27
2018-08-25T23:44:41.753Z,2.90
2018-08-25T23:47:09.343Z,3.17
2018-08-25T23:49:36.876Z,3.10
2018-08-25T23:52:04.495Z,2.40
2018-08-25T23:54:32.008Z,1.70
2018-08-25T23:56:59.617Z,2.10
2018-08-25T23:59:27.187Z,3.10
